NORTHERN NASSAU  -  Areal Flood Advisory Areal Flood Advisory     Special Weather Statement Special Weather Statement        NORTHERN QUEENS  -  Areal Flood Advisory Areal Flood Advisory        SOUTHERN NASSAU  -  Areal Flood Advisory Areal Flood Advisory     Special Weather Statement Special Weather Statement        SOUTHERN QUEENS  -  Areal Flood Advisory Areal Flood Advisory        NORTHEAST SUFFOLK  -  Special Weather Statement Special Weather Statement        NORTHWEST SUFFOLK  -  Special Weather Statement Special Weather Statement        SOUTHEAST SUFFOLK  -  Special Weather Statement Special Weather Statement        SOUTHWEST SUFFOLK  -  Special Weather Statement Special Weather Statement      

Active alerts

Northern Queens
  Details for Northern Queens Areal Flood Advisory
Southern Queens
  Details for Southern Queens Areal Flood Advisory
Northern Nassau
  Details for Northern Nassau Areal Flood Advisory  +1 additional alert
Southern Nassau
  Details for Southern Nassau Areal Flood Advisory  +1 additional alert
Northwest Suffolk
  Details for Northwest Suffolk Special Weather Statement
Southwest Suffolk
  Details for Southwest Suffolk Special Weather Statement
Northeast Suffolk
  Details for Northeast Suffolk Special Weather Statement
Southeast Suffolk
  Details for Southeast Suffolk Special Weather Statement


WXM80 ListenWXM80 Stop

You find our weather info also at:

UK Metoffice

WeatherCloud

Weather Underground

Northeastern Weather Network

AWEKAS

Citizen Weather Observer Program (CWOP)

HAMweather, WeatherForYou, PWS Weather


Weather Underground History page Text

Daily Summary for January 22, 2018 Units:  Metric    English   Both
« Previous Day
Next Day »
Daily Weekly Monthly Yearly Custom
  High: Low: Average:
Temperature: -17.8 °C 2.4 °C 3.4 °C
Dew Point: -17.8 °C 1.5 °C 2.3 °C
Humidity: Humidity % 80 % 92 %
Wind Speed: 0 km/h 0 km/h 4.3 km/h
Wind Gust: 0 km/h - -
Wind:- - East
Pressure: 0 hPa 1010.4 hPa -
Precipitation: 0 mm    
Historical Graphs
 
 
Tabular Data for January 22, 2018
Time Temperature Dew Point Pressure Wind Wind Speed Wind Gust Humidity Rainfall Rate (Hourly)
-17.8 °C -17.8 °C 0 hPa Calm     Humidity % 0 mm
00:04 5.4 °C 2.3 °C 1013.8 hPa Calm     80 % 0 mm
00:09 5.4 °C 2.3 °C 1013.4 hPa Calm     80 % 0 mm
00:14 5.4 °C 2.4 °C 1013.8 hPa Calm     81 % 0 mm
00:19 5.3 °C 2.3 °C 1013.4 hPa Calm     81 % 0 mm
00:24 5.3 °C 2.3 °C 1013.8 hPa Calm     81 % 0 mm
00:29 5.2 °C 2.1 °C 1013.4 hPa Calm     80 % 0 mm
00:39 5.1 °C 1.9 °C 1013.4 hPa Calm     80 % 0 mm
00:44 5.1 °C 1.9 °C 1013.1 hPa Calm     80 % 0 mm
00:49 5.1 °C 1.9 °C 1013.1 hPa Calm     80 % 0 mm
00:54 5 °C 2 °C 1013.4 hPa Calm     81 % 0 mm
01:04 4.9 °C 1.9 °C 1013.1 hPa Calm     81 % 0 mm
01:09 4.9 °C 1.9 °C 1013.1 hPa Calm     81 % 0 mm
01:14 4.9 °C 2.1 °C 1013.1 hPa Calm     82 % 0 mm
01:19 4.9 °C 2.1 °C 1013.1 hPa Calm     82 % 0 mm
01:24 4.8 °C 2 °C 1013.1 hPa Calm     82 % 0 mm
01:29 4.8 °C 2 °C 1013.1 hPa Calm     82 % 0 mm
01:35 4.8 °C 2.2 °C 1013.1 hPa Calm     83 % 0 mm
01:40 4.8 °C 1.9 °C 1013.1 hPa Calm     82 % 0 mm
01:45 4.8 °C 2.1 °C 1013.1 hPa Calm     83 % 0 mm
01:50 4.8 °C 2.1 °C 1013.1 hPa Calm     83 % 0 mm
01:55 4.7 °C 2.1 °C 1013.1 hPa Calm     83 % 0 mm
02:00 4.7 °C 2.2 °C 1013.1 hPa Calm     84 % 0 mm
02:05 4.7 °C 2.2 °C 1013.1 hPa Calm     84 % 0 mm
02:15 4.7 °C 2.3 °C 1012.8 hPa Calm     85 % 0 mm
02:20 4.7 °C 2.3 °C 1012.8 hPa Calm     85 % 0 mm
02:25 4.6 °C 2.3 °C 1012.8 hPa Calm     85 % 0 mm
02:30 4.6 °C 2.4 °C 1012.8 hPa Calm     86 % 0 mm
02:35 4.6 °C 2.4 °C 1012.8 hPa SW 0.2 km/h 1.9 km/h 86 % 0 mm
02:40 4.6 °C 2.6 °C 1012.8 hPa Calm     87 % 0 mm
02:45 4.6 °C 2.8 °C 1013.1 hPa Calm     88 % 0 mm
02:55 4.6 °C 2.9 °C 1012.8 hPa Calm     89 % 0 mm
03:00 4.6 °C 2.9 °C 1012.8 hPa Calm     89 % 0 mm
03:06 4.5 °C 2.8 °C 1012.8 hPa Calm     89 % 0 mm
03:11 4.4 °C 2.6 °C 1012.8 hPa Calm     88 % 0 mm
03:16 4.3 °C 2.5 °C 1012.4 hPa Calm     88 % 0 mm
03:21 4.2 °C 2.4 °C 1012.4 hPa Calm     88 % 0 mm
03:26 4.2 °C 2.3 °C 1012.8 hPa Calm   1.9 km/h 88 % 0 mm
03:31 4.1 °C 2.3 °C 1012.8 hPa SW 0.2 km/h 1.9 km/h 88 % 0 mm
03:36 4.1 °C 2.2 °C 1012.8 hPa Calm   1.9 km/h 88 % 0 mm
03:41 4 °C 2.3 °C 1012.8 hPa Calm     89 % 0 mm
03:46 3.9 °C 2.3 °C 1012.8 hPa North 4.7 km/h 5.6 km/h 89 % 0 mm
03:51 3.9 °C 2.2 °C 1012.4 hPa Calm   1.9 km/h 89 % 0 mm
03:56 3.8 °C 2.3 °C 1012.8 hPa North 0.5 km/h 1.9 km/h 90 % 0 mm
04:01 3.7 °C 2.1 °C 1012.4 hPa Calm   3.7 km/h 89 % 0 mm
04:06 3.6 °C 2.1 °C 1012.4 hPa Calm   3.7 km/h 90 % 0 mm
04:16 3.5 °C 2 °C 1012.4 hPa Calm     90 % 0 mm
04:22 3.4 °C 1.9 °C 1012.4 hPa Calm     90 % 0 mm
04:27 3.4 °C 1.9 °C 1012.4 hPa Calm     90 % 0 mm
04:37 3.3 °C 1.8 °C 1012.4 hPa Calm     90 % 0 mm
04:42 3.3 °C 1.8 °C 1012.4 hPa Calm     90 % 0 mm
04:47 3.3 °C 1.9 °C 1012.4 hPa Calm     91 % 0 mm
04:52 3.3 °C 1.9 °C 1012.4 hPa Calm     91 % 0 mm
04:57 3.2 °C 1.9 °C 1012.4 hPa Calm     91 % 0 mm
05:02 3.2 °C 1.8 °C 1012.4 hPa Calm     91 % 0 mm
05:07 3.2 °C 1.8 °C 1012.8 hPa Calm     91 % 0 mm
05:12 3.1 °C 1.8 °C 1012.8 hPa Calm     91 % 0 mm
05:17 3.1 °C 1.8 °C 1012.8 hPa North 0.8 km/h 3.2 km/h 91 % 0 mm
05:22 3.1 °C 1.7 °C 1012.4 hPa Calm   1.9 km/h 91 % 0 mm
05:27 3.1 °C 1.7 °C 1012.4 hPa North 0.3 km/h 3.7 km/h 91 % 0 mm
05:32 3.1 °C 1.7 °C 1012.4 hPa North 0.2 km/h 3.7 km/h 91 % 0 mm
05:42 3 °C 1.8 °C 1012.4 hPa North 0.6 km/h 1.9 km/h 92 % 0 mm
05:52 2.9 °C 1.8 °C 1012.8 hPa Calm     92 % 0 mm
05:57 2.9 °C 1.8 °C 1012.8 hPa Calm     92 % 0 mm
06:02 2.9 °C 1.8 °C 1012.8 hPa Calm     92 % 0 mm
06:07 2.9 °C 1.8 °C 1012.8 hPa Calm     92 % 0 mm
06:12 2.9 °C 1.8 °C 1012.4 hPa North 0.6 km/h 3.2 km/h 92 % 0 mm
06:18 2.9 °C 1.7 °C 1012.4 hPa Calm     92 % 0 mm
06:23 2.8 °C 1.7 °C 1012.8 hPa Calm     92 % 0 mm
06:28 2.8 °C 1.7 °C 1012.8 hPa Calm     92 % 0 mm
06:33 2.8 °C 1.7 °C 1013.1 hPa Calm     92 % 0 mm
06:38 2.8 °C 1.7 °C 1013.1 hPa Calm     92 % 0 mm
06:43 2.8 °C 1.6 °C 1013.1 hPa Calm     92 % 0 mm
06:48 2.8 °C 1.6 °C 1013.1 hPa North 0.2 km/h 1.6 km/h 92 % 0 mm
06:58 2.8 °C 1.6 °C 1013.1 hPa Calm     92 % 0 mm
07:03 2.8 °C 1.6 °C 1013.1 hPa Calm     92 % 0 mm
07:08 2.8 °C 1.6 °C 1013.1 hPa Calm     92 % 0 mm
07:13 2.7 °C 1.6 °C 1013.1 hPa Calm     92 % 0 mm
07:18 2.7 °C 1.6 °C 1013.4 hPa Calm     92 % 0 mm
07:23 2.7 °C 1.6 °C 1013.4 hPa Calm     92 % 0 mm
07:28 2.7 °C 1.6 °C 1013.4 hPa Calm     92 % 0 mm
07:38 2.7 °C 1.5 °C 1013.4 hPa Calm     92 % 0 mm
07:48 2.7 °C 1.7 °C 1013.8 hPa North 0.6 km/h 1.6 km/h 93 % 0 mm
07:53 2.7 °C 1.7 °C 1013.8 hPa Calm     93 % 0 mm
07:58 2.7 °C 1.7 °C 1013.8 hPa North 0.6 km/h 3.7 km/h 93 % 0 mm
08:03 2.8 °C 1.8 °C 1013.8 hPa Calm     93 % 0 mm
08:08 2.8 °C 1.8 °C 1014.1 hPa Calm     93 % 0 mm
08:13 2.8 °C 1.8 °C 1014.1 hPa Calm     93 % 0 mm
08:19 2.8 °C 1.8 °C 1014.1 hPa North 0.8 km/h 1.6 km/h 93 % 0 mm
08:24 2.9 °C 1.9 °C 1014.1 hPa North 0.2 km/h 3.7 km/h 93 % 0 mm
08:34 2.9 °C 1.9 °C 1014.4 hPa North 1 km/h 3.7 km/h 93 % 0 mm
08:39 2.9 °C 2.1 °C 1014.4 hPa North 0.8 km/h 5.6 km/h 94 % 0 mm
08:44 2.9 °C 2.1 °C 1014.8 hPa Calm     94 % 0 mm
08:49 2.9 °C 2.1 °C 1014.4 hPa Calm     94 % 0 mm
08:54 3 °C 2.1 °C 1014.4 hPa NE 1.1 km/h 4.8 km/h 94 % 0 mm
08:59 2.9 °C 2.1 °C 1014.8 hPa Calm     94 % 0 mm
09:04 2.9 °C 2.1 °C 1014.8 hPa NE 1.6 km/h 3.7 km/h 94 % 0 mm
09:09 2.9 °C 2.1 °C 1014.8 hPa NE 1.4 km/h 5.6 km/h 94 % 0 mm
09:14 2.9 °C 2.1 °C 1014.8 hPa ENE 1.6 km/h 5.6 km/h 94 % 0 mm
09:19 2.9 °C 2.1 °C 1014.8 hPa ENE 2.9 km/h 5.6 km/h 94 % 0 mm
09:29 3 °C 2.1 °C 1014.8 hPa ENE 2.3 km/h 3.7 km/h 94 % 0 mm
09:34 3.1 °C 2.2 °C 1014.8 hPa ENE 1.1 km/h 5.6 km/h 94 % 0 mm
09:39 3.1 °C 2.2 °C 1014.8 hPa ENE 1.1 km/h 3.7 km/h 94 % 0 mm
09:44 3.2 °C 2.3 °C 1015.1 hPa ENE 0.2 km/h 5.6 km/h 94 % 0 mm
09:49 3.2 °C 2.3 °C 1015.1 hPa ENE 1.3 km/h 5.6 km/h 94 % 0 mm
09:54 3.2 °C 2.3 °C 1014.8 hPa ENE 2.9 km/h 5.6 km/h 94 % 0 mm
09:59 3.3 °C 2.4 °C 1014.8 hPa ENE 2.9 km/h 5.6 km/h 94 % 0 mm
10:04 3.3 °C 2.4 °C 1014.8 hPa ENE 2.7 km/h 5.6 km/h 94 % 0 mm
10:09 3.4 °C 2.6 °C 1014.8 hPa ENE 3.7 km/h 5.6 km/h 94 % 0 mm
10:14 3.6 °C 2.7 °C 1014.8 hPa ENE 2.6 km/h 5.6 km/h 94 % 0 mm
10:20 3.7 °C 2.8 °C 1014.8 hPa ENE 3.9 km/h 5.6 km/h 94 % 0 mm
10:25 3.7 °C 2.8 °C 1014.4 hPa ENE 6.3 km/h 9.3 km/h 94 % 0 mm
10:30 3.8 °C 2.9 °C 1014.4 hPa East 3.2 km/h 5.6 km/h 94 % 0 mm
10:35 3.8 °C 2.9 °C 1014.8 hPa ENE 4.5 km/h 7.4 km/h 94 % 0 mm
10:40 3.8 °C 2.9 °C 1014.8 hPa ENE 3.4 km/h 5.6 km/h 94 % 0 mm
10:45 3.9 °C 3 °C 1014.8 hPa ENE 4.5 km/h 5.6 km/h 94 % 0 mm
10:50 3.9 °C 2.8 °C 1014.8 hPa ENE 2.6 km/h 7.4 km/h 93 % 0 mm
10:55 3.9 °C 2.8 °C 1014.8 hPa NE 2.6 km/h 5.6 km/h 93 % 0 mm
11:00 4 °C 2.9 °C 1014.8 hPa NE 1.1 km/h 3.7 km/h 93 % 0 mm
11:05 4.1 °C 3 °C 1014.8 hPa NE 2.9 km/h 5.6 km/h 93 % 0 mm
11:10 4.1 °C 3 °C 1014.8 hPa NE 2.1 km/h 5.6 km/h 93 % 0 mm
11:15 4.1 °C 3 °C 1014.8 hPa NNE 3.9 km/h 8 km/h 93 % 0 mm
11:20 4.1 °C 3 °C 1014.8 hPa NE 3.4 km/h 5.6 km/h 93 % 0 mm
11:25 4.1 °C 3 °C 1014.4 hPa NE 3.5 km/h 5.6 km/h 93 % 0 mm
11:30 4.1 °C 2.9 °C 1014.4 hPa ENE 2.7 km/h 5.6 km/h 92 % 0 mm
11:35 4.1 °C 3.1 °C 1014.1 hPa ENE 1 km/h 3.2 km/h 93 % 0 mm
11:40 4.2 °C 3.2 °C 1014.1 hPa ENE 4 km/h 5.6 km/h 93 % 0 mm
11:41 4.2 °C 3.2 °C 1014.1 hPa ENE 3.5 km/h 5.6 km/h 93 % 0 mm
11:46 4.3 °C 3.2 °C 1013.8 hPa East 4 km/h 7.4 km/h 93 % 0 mm
11:51 4.4 °C 3.3 °C 1013.8 hPa ENE 4.7 km/h 7.4 km/h 93 % 0 mm
11:57 4.4 °C 3.3 °C 1013.8 hPa ENE 4.8 km/h 11.1 km/h 93 % 0 mm
12:02 4.4 °C 3.3 °C 1013.8 hPa NE 5.3 km/h 8 km/h 93 % 0 mm
12:07 4.4 °C 3.2 °C 1013.8 hPa NE 3.5 km/h 7.4 km/h 92 % 0 mm
12:12 4.4 °C 3.2 °C 1013.8 hPa NE 1.6 km/h 7.4 km/h 92 % 0 mm
12:17 4.4 °C 3.3 °C 1013.8 hPa NE 5.5 km/h 7.4 km/h 92 % 0 mm
12:22 4.5 °C 3.3 °C 1013.4 hPa ENE 4 km/h 7.4 km/h 92 % 0 mm
12:27 4.4 °C 3.3 °C 1013.4 hPa ENE 5.8 km/h 11.3 km/h 92 % 0 mm
12:32 4.4 °C 3.3 °C 1013.4 hPa NE 6.8 km/h 11.1 km/h 92 % 0 mm
12:37 4.4 °C 3.3 °C 1013.4 hPa ENE 6.3 km/h 11.1 km/h 92 % 0 mm
12:42 4.4 °C 3.2 °C 1013.1 hPa ENE 5.8 km/h 7.4 km/h 92 % 0 mm
12:47 4.3 °C 3.2 °C 1013.1 hPa ENE 6.4 km/h 9.3 km/h 92 % 0 mm
12:52 4.3 °C 3.2 °C 1013.1 hPa ENE 4.5 km/h 7.4 km/h 92 % 0 mm
12:57 4.3 °C 3.2 °C 1013.4 hPa East 10.1 km/h 13 km/h 92 % 0 mm
13:02 4.3 °C 3.1 °C 1013.4 hPa ENE 5.5 km/h 9.3 km/h 92 % 0 mm
13:07 4.3 °C 3.1 °C 1013.1 hPa ENE 4 km/h 7.4 km/h 92 % 0 mm
13:12 4.3 °C 3.1 °C 1013.4 hPa East 5.8 km/h 9.3 km/h 92 % 0 mm
13:17 4.3 °C 3.2 °C 1013.4 hPa East 3.2 km/h 5.6 km/h 92 % 0 mm
13:22 4.4 °C 3.2 °C 1013.4 hPa ENE 3.9 km/h 13 km/h 92 % 0 mm
13:27 4.4 °C 3.2 °C 1013.1 hPa ENE 4.8 km/h 5.6 km/h 92 % 0 mm
13:32 4.4 °C 3.3 °C 1013.1 hPa ENE 4.5 km/h 7.4 km/h 92 % 0 mm
13:37 4.4 °C 3.3 °C 1013.1 hPa East 5.6 km/h 9.7 km/h 92 % 0 mm
13:42 4.4 °C 3.2 °C 1013.1 hPa ENE 5.3 km/h 7.4 km/h 92 % 0 mm
13:47 4.3 °C 3.2 °C 1013.1 hPa ENE 6 km/h 13 km/h 92 % 0 mm
13:52 4.3 °C 3.1 °C 1013.1 hPa ENE 4.8 km/h 9.3 km/h 92 % 0 mm
13:58 4.2 °C 3.1 °C 1013.1 hPa ENE 5.6 km/h 7.4 km/h 92 % 0 mm
14:03 4.2 °C 3 °C 1013.1 hPa ENE 6 km/h 11.3 km/h 92 % 0 mm
14:08 4.1 °C 2.9 °C 1013.1 hPa ENE 5.5 km/h 9.3 km/h 92 % 0 mm
14:13 4.2 °C 3 °C 1013.1 hPa ENE 5.1 km/h 7.4 km/h 92 % 0 mm
14:18 4.2 °C 3 °C 1013.1 hPa ENE 6 km/h 9.3 km/h 92 % 0 mm
14:23 4.1 °C 2.9 °C 1013.1 hPa ENE 7.2 km/h 11.1 km/h 92 % 0 mm
14:28 4.1 °C 2.9 °C 1013.1 hPa ENE 9 km/h 13 km/h 92 % 0 mm
14:33 4.1 °C 2.9 °C 1012.8 hPa ENE 8.5 km/h 14.8 km/h 92 % 0 mm
14:38 4.1 °C 3 °C 1012.8 hPa East 5.8 km/h 9.7 km/h 93 % 0 mm
14:43 4.1 °C 3.1 °C 1012.8 hPa ENE 8.7 km/h 13 km/h 93 % 0 mm
14:48 4.1 °C 3.1 °C 1012.8 hPa East 10.8 km/h 13 km/h 93 % 0 mm
14:53 4.2 °C 3.1 °C 1012.8 hPa East 9.5 km/h 16.7 km/h 93 % 0 mm
14:58 4.1 °C 3.1 °C 1012.8 hPa East 10.1 km/h 16.7 km/h 93 % 0 mm
15:03 4.1 °C 3.1 °C 1012.8 hPa East 7.4 km/h 13 km/h 93 % 0 mm
15:08 4.1 °C 3.1 °C 1012.8 hPa ENE 7.4 km/h 11.1 km/h 93 % 0 mm
15:13 4.1 °C 3 °C 1012.8 hPa ENE 7.2 km/h 11.1 km/h 93 % 0 mm
15:18 4.1 °C 3 °C 1012.8 hPa East 7.9 km/h 11.3 km/h 93 % 0 mm
15:23 4.1 °C 3 °C 1012.8 hPa ENE 7.7 km/h 13 km/h 93 % 0 mm
15:28 4 °C 2.9 °C 1012.8 hPa ENE 6.3 km/h 9.3 km/h 93 % 0 mm
15:33 4 °C 2.9 °C 1012.8 hPa ENE 6.3 km/h 11.1 km/h 93 % 0 mm
15:38 3.9 °C 2.9 °C 1012.8 hPa ENE 6.3 km/h 11.1 km/h 93 % 0 mm
15:43 3.9 °C 2.9 °C 1012.8 hPa ENE 7.2 km/h 9.3 km/h 93 % 0 mm
15:48 3.9 °C 2.8 °C 1012.8 hPa East 11.7 km/h 14.8 km/h 93 % 0 mm
15:53 3.8 °C 2.8 °C 1012.8 hPa ENE 8.5 km/h 11.1 km/h 93 % 0 mm
15:59 3.8 °C 2.7 °C 1012.8 hPa ENE 7.7 km/h 11.3 km/h 93 % 0 mm
16:04 3.7 °C 2.7 °C 1012.8 hPa ENE 8 km/h 11.1 km/h 93 % 0 mm
16:09 3.7 °C 2.7 °C 1012.8 hPa ENE 5.8 km/h 13 km/h 93 % 0 mm
16:14 3.6 °C 2.6 °C 1012.8 hPa ENE 9.2 km/h 14.8 km/h 93 % 0 mm
16:19 3.6 °C 2.6 °C 1012.8 hPa East 7.7 km/h 13 km/h 93 % 0 mm
16:24 3.5 °C 2.5 °C 1012.8 hPa ENE 10.6 km/h 14.8 km/h 93 % 0 mm
16:29 3.4 °C 2.4 °C 1012.8 hPa ENE 8.2 km/h 13 km/h 93 % 0 mm
16:34 3.4 °C 2.6 °C 1012.8 hPa ENE 10.9 km/h 14.8 km/h 94 % 0 mm
16:39 3.4 °C 2.6 °C 1013.1 hPa ENE 7.2 km/h 12.9 km/h 94 % 0 mm
16:44 3.4 °C 2.6 °C 1013.1 hPa ENE 9.3 km/h 13 km/h 94 % 0 mm
16:49 3.4 °C 2.5 °C 1012.8 hPa ENE 10.9 km/h 16.7 km/h 94 % 0 mm
16:54 3.4 °C 2.5 °C 1013.1 hPa East 8.2 km/h 13 km/h 94 % 0 mm
16:59 3.3 °C 2.4 °C 1013.1 hPa ENE 8.5 km/h 14.8 km/h 94 % 0 mm
17:04 3.3 °C 2.4 °C 1013.1 hPa East 11.6 km/h 13 km/h 94 % 0 mm
17:09 3.3 °C 2.4 °C 1013.1 hPa East 8.7 km/h 16.7 km/h 94 % 0 mm
17:10 3.3 °C 2.4 °C 1013.1 hPa East 10 km/h 16.7 km/h 94 % 0 mm
17:15 3.3 °C 2.4 °C 1013.1 hPa East 11.6 km/h 16.1 km/h 94 % 0 mm
17:20 3.3 °C 2.4 °C 1013.1 hPa East 9.3 km/h 13 km/h 94 % 0 mm
17:25 3.2 °C 2.3 °C 1013.1 hPa ENE 10 km/h 13 km/h 94 % 0 mm
17:30 3.2 °C 2.3 °C 1013.1 hPa East 8.9 km/h 13 km/h 94 % 0 mm
17:35 3.2 °C 2.3 °C 1013.1 hPa East 8.2 km/h 13 km/h 94 % 0 mm
17:40 3.2 °C 2.3 °C 1013.1 hPa East 8.4 km/h 13 km/h 94 % 0 mm
17:45 3.1 °C 2.2 °C 1013.1 hPa East 9.7 km/h 13 km/h 94 % 0 mm
17:50 3.1 °C 2.2 °C 1013.1 hPa East 10 km/h 13 km/h 94 % 0 mm
17:55 3.1 °C 2.2 °C 1013.1 hPa East 8.4 km/h 13 km/h 94 % 0 mm
18:00 3.1 °C 2.2 °C 1013.1 hPa East 8.7 km/h 13 km/h 94 % 0 mm
18:05 3.1 °C 2.2 °C 1013.1 hPa East 10 km/h 11.3 km/h 94 % 0 mm
18:10 3.1 °C 2.2 °C 1013.1 hPa ENE 7.6 km/h 11.1 km/h 94 % 0 mm
18:15 3.1 °C 2.2 °C 1013.1 hPa ENE 8.7 km/h 13 km/h 94 % 0 mm
18:20 3.1 °C 2.2 °C 1013.1 hPa East 9.7 km/h 13 km/h 94 % 0 mm
18:25 3 °C 2.1 °C 1013.1 hPa East 8.4 km/h 14.8 km/h 94 % 0 mm
18:30 3 °C 2.1 °C 1013.4 hPa East 8.9 km/h 13 km/h 94 % 0 mm
18:35 3 °C 2.1 °C 1013.4 hPa East 7.7 km/h 11.1 km/h 94 % 0 mm
18:40 3 °C 2.1 °C 1013.4 hPa ENE 6 km/h 11.1 km/h 94 % 0 mm
18:45 3 °C 2.1 °C 1013.1 hPa East 8.4 km/h 11.3 km/h 94 % 0 mm
18:50 3 °C 2.1 °C 1013.1 hPa ENE 7.7 km/h 11.1 km/h 94 % 0 mm
18:55 3 °C 2.1 °C 1013.1 hPa ENE 8.4 km/h 14.8 km/h 94 % 0 mm
19:00 2.9 °C 2.2 °C 1013.1 hPa ENE 9.7 km/h 12.9 km/h 95 % 0 mm
19:05 2.9 °C 2.2 °C 1013.1 hPa ENE 7.9 km/h 13 km/h 95 % 0 mm
19:11 2.9 °C 2.2 °C 1013.1 hPa ENE 8 km/h 12.9 km/h 95 % 0 mm
19:16 2.9 °C 2.2 °C 1013.1 hPa ENE 12.9 km/h 16.1 km/h 95 % 0 mm
19:21 2.9 °C 2.2 °C 1012.8 hPa ENE 9.7 km/h 16.1 km/h 95 % 0 mm
19:25 2.9 °C 2.2 °C 1012.8 hPa ENE 10.6 km/h 14.5 km/h 95 % 0 mm
19:31 2.9 °C 2.2 °C 1012.8 hPa ENE 9.7 km/h 14.5 km/h 95 % 0 mm
19:36 2.8 °C 2.1 °C 1012.8 hPa ENE 11.3 km/h 16.1 km/h 95 % 0 mm
19:41 2.8 °C 2.1 °C 1012.8 hPa ENE 9.7 km/h 14.5 km/h 95 % 0 mm
19:46 2.8 °C 2.1 °C 1013.1 hPa ENE 7.7 km/h 13 km/h 95 % 0 mm
19:51 2.8 °C 2.1 °C 1013.1 hPa ENE 11.3 km/h 14.5 km/h 95 % 0 mm
20:01 2.8 °C 2.1 °C 1012.8 hPa East 9.5 km/h 11.1 km/h 95 % 0 mm
20:06 2.8 °C 2.1 °C 1012.8 hPa ENE 9.3 km/h 14.8 km/h 95 % 0 mm
20:11 2.8 °C 2.2 °C 1012.8 hPa ENE 8.7 km/h 16.7 km/h 96 % 0 mm
20:16 2.8 °C 2.2 °C 1012.8 hPa ENE 12.4 km/h 18.5 km/h 96 % 0 mm
20:21 2.8 °C 2.2 °C 1012.8 hPa East 9.7 km/h 16.7 km/h 96 % 0 mm
20:36 2.7 °C 2.2 °C 1012.4 hPa NE 12.2 km/h 16.7 km/h 96 % 0 mm
20:41 2.7 °C 2.2 °C 1012.4 hPa ENE 10.1 km/h 16.7 km/h 96 % 0 mm
20:46 2.7 °C 2.2 °C 1012.4 hPa ENE 9 km/h 12.9 km/h 96 % 0 mm
20:51 2.7 °C 2.1 °C 1012.4 hPa ENE 11.7 km/h 18.5 km/h 96 % 0 mm
20:56 2.7 °C 2.1 °C 1012.4 hPa ENE 6.6 km/h 9.3 km/h 96 % 0 mm
21:01 2.7 °C 2.1 °C 1012.4 hPa ENE 7.2 km/h 11.1 km/h 96 % 0 mm
21:06 2.7 °C 2.1 °C 1012.1 hPa ENE 8.5 km/h 14.8 km/h 96 % 0 mm
21:11 2.7 °C 2.1 °C 1012.1 hPa ENE 9.5 km/h 13 km/h 96 % 0 mm
21:16 2.7 °C 2.1 °C 1011.7 hPa ENE 9.8 km/h 16.7 km/h 96 % 0 mm
21:21 2.6 °C 2.1 °C 1011.7 hPa East 7.6 km/h 9.7 km/h 96 % 0 mm
21:26 2.6 °C 2.1 °C 1011.7 hPa East 9 km/h 13 km/h 96 % 0 mm
21:31 2.6 °C 2.2 °C 1011.7 hPa East 6.3 km/h 8 km/h 97 % 0 mm
21:36 2.6 °C 2.2 °C 1011.7 hPa ENE 8.5 km/h 11.1 km/h 97 % 0 mm
21:42 2.6 °C 2.1 °C 1011.4 hPa ENE 9.2 km/h 11.3 km/h 97 % 0 mm
21:52 2.6 °C 2.1 °C 1011.1 hPa ENE 11.6 km/h 14.8 km/h 97 % 0 mm
21:57 2.6 °C 2.1 °C 1011.4 hPa East 7.2 km/h 11.1 km/h 97 % 0 mm
22:02 2.6 °C 2.1 °C 1011.4 hPa ENE 7.7 km/h 11.3 km/h 97 % 0 mm
22:07 2.6 °C 2.1 °C 1011.1 hPa East 10 km/h 14.8 km/h 97 % 0 mm
22:12 2.6 °C 2.1 °C 1011.1 hPa ENE 8.2 km/h 12.9 km/h 97 % 0 mm
22:17 2.6 °C 2.1 °C 1011.1 hPa ENE 8.4 km/h 13 km/h 97 % 0 mm
22:27 2.6 °C 2.1 °C 1011.1 hPa East 7.7 km/h 11.1 km/h 97 % 0 mm
22:32 2.6 °C 2.1 °C 1011.1 hPa ENE 5.8 km/h 7.4 km/h 97 % 0 mm
22:42 2.5 °C 2.1 °C 1010.7 hPa ENE 9.8 km/h 13 km/h 97 % 0 mm
22:47 2.5 °C 2.1 °C 1010.7 hPa ENE 6.3 km/h 9.3 km/h 97 % 0 mm
22:52 2.5 °C 2.1 °C 1010.4 hPa ENE 8.2 km/h 13 km/h 97 % 0 mm
23:02 2.4 °C 2 °C 1010.4 hPa ENE 5.6 km/h 11.1 km/h 97 % 0 mm
23:07 2.4 °C 2 °C 1010.4 hPa ENE 5.5 km/h 9.7 km/h 97 % 0 mm
23:12 2.4 °C 2 °C 1010.4 hPa ENE 4.5 km/h 13 km/h 97 % 0 mm
23:17 2.4 °C 2 °C 1010.4 hPa East 4.7 km/h 9.3 km/h 97 % 0 mm
23:22 2.4 °C 2 °C 1010.4 hPa ENE 5.8 km/h 7.4 km/h 97 % 0 mm
23:27 2.4 °C 2 °C 1010.4 hPa East 4.8 km/h 7.4 km/h 97 % 0 mm
23:37 2.4 °C 2 °C 1010.4 hPa ENE 4.8 km/h 6.4 km/h 97 % 0 mm
23:42 2.4 °C 2 °C 1010.4 hPa ENE 6.8 km/h 8 km/h 97 % 0 mm
23:48 2.4 °C 2 °C 1010.4 hPa East 6.4 km/h 11.1 km/h 97 % 0 mm
23:53 2.4 °C 2 °C 1010.4 hPa East 6.4 km/h 9.3 km/h 97 % 0 mm
23:58 2.4 °C 2 °C 1010.4 hPa East 7.7 km/h 9.7 km/h 97 % 0 mm
Crab Meadow Weather
Compliments of Weather Underground - 2.75 mb

Script developed by  Jim McMurry - jmcmurry@mwt.net Adapted for the template by  Wim van der Kuil - Leuven-Template.eu

Extremes: A record low of - 128.6 degrees F was recorded at Vostok, Antarctica.